Terminal Aerodrome Forecast
Issued by NWS

Home | Current Version | Previous Version | Text Only | Print | Product List | Glossary On
Versions: 1 2 3 4 5 6 7 8 9 10 11 12 13 14 15 16 17 18 19 20 21 22 23 24 25 26 27 28 29 30 31 32
000
FTUS45 KGJT 051131
TAFEGE
TAF
KEGE 051131Z 0512/0612 VRB03KT P6SM OVC090
     FM051700 24011KT P6SM SCT060 OVC090
     FM052000 24018G26KT P6SM VCSH SCT060 BKN090
     FM060300 09004KT P6SM VCSH BKN070
     FM060600 27005KT P6SM BKN100
      AMD LTD TO CLD VIS AND WIND TIL 051300=

USA.gov is the U.S. government's official web portal to all federal, state and local government web resources and services.